KESC/ESC METAR and TAF weather

Enter ICAO airport designator
Station Type Date Time Source
KESC METAR 2021/05/15 00:56 UTC NOAA

KESC 150056Z AUTO 19008KT 10SM CLR 13/05 A3016 RMK AO2 SLP218 T01280050 $


Station Type Date Time Source
KESC Decoded METAR 2021/05/15 00:56 UTC NOAA

Escanaba, MI, United States (KESC) 45-45N 087-02W 187M
May 14, 2021 - 08:56 PM EDT / 2021.05.15 0056 UTC
Wind: from the S (190 degrees) at 9 MPH (8 KT):0
Visibility: 10 mile(s):0
Sky conditions: clear
Temperature: 55.0 F (12.8 C)
Dew Point: 41.0 F (5.0 C)
Relative Humidity: 59%
Pressure (altimeter): 30.16 in. Hg (1021 hPa)
ob: KESC 150056Z AUTO 19008KT 10SM CLR 13/05 A3016 RMK AO2 SLP218 T01280050
cycle: 1

Station Type Date Time Source
KESC TAF UTC NOAA

Error!

Example: see airport list